sensor_id;sensor_type;location;lat;lon;timestamp;P1;durP1;ratioP1;P2;durP2;ratioP2
10711;SDS011;5407;51.234;6.804;2023-07-24T00:02:25;4.57;;;3.05;;
10711;SDS011;5407;51.234;6.804;2023-07-24T00:04:52;3.13;;;2.83;;
10711;SDS011;5407;51.234;6.804;2023-07-24T00:07:18;4.00;;;2.88;;
10711;SDS011;5407;51.234;6.804;2023-07-24T00:09:45;4.45;;;3.15;;
10711;SDS011;5407;51.234;6.804;2023-07-24T00:12:12;4.07;;;2.90;;
10711;SDS011;5407;51.234;6.804;2023-07-24T00:14:39;3.15;;;2.85;;
10711;SDS011;5407;51.234;6.804;2023-07-24T00:17:07;3.92;;;3.00;;
10711;SDS011;5407;51.234;6.804;2023-07-24T00:19:34;4.90;;;3.10;;
10711;SDS011;5407;51.234;6.804;2023-07-24T00:22:01;3.58;;;3.17;;
10711;SDS011;5407;51.234;6.804;2023-07-24T00:24:29;3.50;;;3.03;;
10711;SDS011;5407;51.234;6.804;2023-07-24T00:26:56;5.17;;;4.00;;
10711;SDS011;5407;51.234;6.804;2023-07-24T00:29:23;5.00;;;3.40;;
10711;SDS011;5407;51.234;6.804;2023-07-24T00:31:50;4.53;;;2.90;;
10711;SDS011;5407;51.234;6.804;2023-07-24T00:34:18;3.75;;;2.97;;
10711;SDS011;5407;51.234;6.804;2023-07-24T00:36:45;3.92;;;3.10;;
10711;SDS011;5407;51.234;6.804;2023-07-24T00:39:13;3.38;;;3.08;;
10711;SDS011;5407;51.234;6.804;2023-07-24T00:41:41;4.53;;;3.13;;
10711;SDS011;5407;51.234;6.804;2023-07-24T00:44:08;5.80;;;3.60;;
10711;SDS011;5407;51.234;6.804;2023-07-24T00:46:35;4.33;;;3.33;;
10711;SDS011;5407;51.234;6.804;2023-07-24T00:49:02;5.53;;;3.20;;
10711;SDS011;5407;51.234;6.804;2023-07-24T00:51:32;4.10;;;3.10;;
10711;SDS011;5407;51.234;6.804;2023-07-24T00:54:01;4.75;;;3.25;;
10711;SDS011;5407;51.234;6.804;2023-07-24T00:56:29;5.28;;;3.30;;
10711;SDS011;5407;51.234;6.804;2023-07-24T00:58:58;5.63;;;3.10;;
10711;SDS011;5407;51.234;6.804;2023-07-24T01:01:25;3.60;;;2.92;;
10711;SDS011;5407;51.234;6.804;2023-07-24T01:03:52;2.75;;;2.55;;
10711;SDS011;5407;51.234;6.804;2023-07-24T01:06:20;3.60;;;3.20;;
10711;SDS011;5407;51.234;6.804;2023-07-24T01:08:48;4.68;;;3.00;;
10711;SDS011;5407;51.234;6.804;2023-07-24T01:11:15;3.20;;;2.80;;
10711;SDS011;5407;51.234;6.804;2023-07-24T01:13:47;5.63;;;3.20;;
10711;SDS011;5407;51.234;6.804;2023-07-24T01:16:21;6.20;;;3.30;;
10711;SDS011;5407;51.234;6.804;2023-07-24T01:18:52;4.38;;;3.90;;
10711;SDS011;5407;51.234;6.804;2023-07-24T01:21:26;3.83;;;3.13;;
10711;SDS011;5407;51.234;6.804;2023-07-24T01:24:03;4.53;;;3.10;;
10711;SDS011;5407;51.234;6.804;2023-07-24T01:26:40;5.23;;;3.27;;
10711;SDS011;5407;51.234;6.804;2023-07-24T01:29:07;3.72;;;3.35;;
10711;SDS011;5407;51.234;6.804;2023-07-24T01:31:34;3.70;;;3.22;;
10711;SDS011;5407;51.234;6.804;2023-07-24T01:34:01;5.43;;;3.25;;
10711;SDS011;5407;51.234;6.804;2023-07-24T01:36:28;3.47;;;2.97;;
10711;SDS011;5407;51.234;6.804;2023-07-24T01:38:54;5.17;;;3.30;;
10711;SDS011;5407;51.234;6.804;2023-07-24T01:41:22;3.90;;;3.27;;
10711;SDS011;5407;51.234;6.804;2023-07-24T01:43:51;4.38;;;3.20;;
10711;SDS011;5407;51.234;6.804;2023-07-24T01:46:18;6.57;;;3.90;;
10711;SDS011;5407;51.234;6.804;2023-07-24T01:48:45;4.60;;;3.30;;
10711;SDS011;5407;51.234;6.804;2023-07-24T01:51:12;5.33;;;3.50;;
10711;SDS011;5407;51.234;6.804;2023-07-24T01:53:39;4.80;;;3.53;;
10711;SDS011;5407;51.234;6.804;2023-07-24T01:56:06;4.00;;;3.60;;
10711;SDS011;5407;51.234;6.804;2023-07-24T01:58:33;4.57;;;3.80;;
10711;SDS011;5407;51.234;6.804;2023-07-24T02:01:01;4.72;;;3.67;;
10711;SDS011;5407;51.234;6.804;2023-07-24T02:03:28;5.85;;;4.10;;
10711;SDS011;5407;51.234;6.804;2023-07-24T02:05:55;7.00;;;4.17;;
10711;SDS011;5407;51.234;6.804;2023-07-24T02:08:22;7.78;;;5.45;;
10711;SDS011;5407;51.234;6.804;2023-07-24T02:10:49;10.48;;;7.03;;
10711;SDS011;5407;51.234;6.804;2023-07-24T02:13:16;5.70;;;5.15;;
10711;SDS011;5407;51.234;6.804;2023-07-24T02:15:48;5.00;;;4.00;;
10711;SDS011;5407;51.234;6.804;2023-07-24T02:18:16;5.38;;;4.00;;
10711;SDS011;5407;51.234;6.804;2023-07-24T02:20:48;5.95;;;3.95;;
10711;SDS011;5407;51.234;6.804;2023-07-24T02:23:16;6.28;;;4.20;;
10711;SDS011;5407;51.234;6.804;2023-07-24T02:25:43;5.85;;;4.22;;
10711;SDS011;5407;51.234;6.804;2023-07-24T02:28:10;7.35;;;4.15;;
10711;SDS011;5407;51.234;6.804;2023-07-24T02:30:37;8.10;;;4.17;;
10711;SDS011;5407;51.234;6.804;2023-07-24T02:33:04;6.03;;;4.18;;
10711;SDS011;5407;51.234;6.804;2023-07-24T02:35:39;7.03;;;4.28;;
10711;SDS011;5407;51.234;6.804;2023-07-24T02:38:06;7.13;;;4.18;;
10711;SDS011;5407;51.234;6.804;2023-07-24T02:40:33;7.43;;;4.10;;
10711;SDS011;5407;51.234;6.804;2023-07-24T02:43:01;4.10;;;3.70;;
10711;SDS011;5407;51.234;6.804;2023-07-24T02:45:28;5.50;;;4.30;;
10711;SDS011;5407;51.234;6.804;2023-07-24T02:47:56;6.85;;;4.32;;
10711;SDS011;5407;51.234;6.804;2023-07-24T02:50:23;6.28;;;4.22;;
10711;SDS011;5407;51.234;6.804;2023-07-24T02:52:51;9.48;;;4.57;;
10711;SDS011;5407;51.234;6.804;2023-07-24T02:55:18;7.30;;;4.68;;
10711;SDS011;5407;51.234;6.804;2023-07-24T02:57:45;10.50;;;4.80;;
10711;SDS011;5407;51.234;6.804;2023-07-24T03:00:12;7.50;;;4.40;;
10711;SDS011;5407;51.234;6.804;2023-07-24T03:02:39;9.30;;;4.33;;
10711;SDS011;5407;51.234;6.804;2023-07-24T03:05:06;7.00;;;4.27;;
10711;SDS011;5407;51.234;6.804;2023-07-24T03:07:34;6.63;;;4.60;;
10711;SDS011;5407;51.234;6.804;2023-07-24T03:10:03;8.52;;;5.05;;
10711;SDS011;5407;51.234;6.804;2023-07-24T03:12:30;6.80;;;5.18;;
10711;SDS011;5407;51.234;6.804;2023-07-24T03:14:57;5.47;;;4.50;;
10711;SDS011;5407;51.234;6.804;2023-07-24T03:17:24;5.75;;;4.50;;
10711;SDS011;5407;51.234;6.804;2023-07-24T03:19:51;9.55;;;4.53;;
10711;SDS011;5407;51.234;6.804;2023-07-24T03:22:18;5.88;;;4.18;;
10711;SDS011;5407;51.234;6.804;2023-07-24T03:24:45;6.47;;;4.38;;
10711;SDS011;5407;51.234;6.804;2023-07-24T03:27:13;6.13;;;4.70;;
10711;SDS011;5407;51.234;6.804;2023-07-24T03:29:40;5.97;;;4.47;;
10711;SDS011;5407;51.234;6.804;2023-07-24T03:32:07;6.75;;;4.50;;
10711;SDS011;5407;51.234;6.804;2023-07-24T03:34:34;6.38;;;4.30;;
10711;SDS011;5407;51.234;6.804;2023-07-24T03:37:01;6.00;;;4.35;;
10711;SDS011;5407;51.234;6.804;2023-07-24T03:39:29;5.40;;;4.32;;
10711;SDS011;5407;51.234;6.804;2023-07-24T03:41:56;6.47;;;4.40;;
10711;SDS011;5407;51.234;6.804;2023-07-24T03:44:24;7.57;;;4.38;;
10711;SDS011;5407;51.234;6.804;2023-07-24T03:46:51;5.50;;;4.13;;
10711;SDS011;5407;51.234;6.804;2023-07-24T03:49:18;7.47;;;4.43;;
10711;SDS011;5407;51.234;6.804;2023-07-24T03:51:45;6.00;;;4.60;;
10711;SDS011;5407;51.234;6.804;2023-07-24T03:54:12;6.57;;;4.13;;
10711;SDS011;5407;51.234;6.804;2023-07-24T03:56:39;6.45;;;4.32;;
10711;SDS011;5407;51.234;6.804;2023-07-24T03:59:05;8.50;;;4.57;;
10711;SDS011;5407;51.234;6.804;2023-07-24T04:01:34;7.18;;;4.13;;
10711;SDS011;5407;51.234;6.804;2023-07-24T04:04:01;5.55;;;4.35;;
10711;SDS011;5407;51.234;6.804;2023-07-24T04:06:28;9.82;;;4.30;;
10711;SDS011;5407;51.234;6.804;2023-07-24T04:08:54;10.05;;;4.65;;
10711;SDS011;5407;51.234;6.804;2023-07-24T04:11:21;8.68;;;4.63;;
10711;SDS011;5407;51.234;6.804;2023-07-24T04:13:48;9.50;;;4.43;;
10711;SDS011;5407;51.234;6.804;2023-07-24T04:16:15;8.37;;;4.63;;
10711;SDS011;5407;51.234;6.804;2023-07-24T04:18:43;8.47;;;4.53;;
10711;SDS011;5407;51.234;6.804;2023-07-24T04:21:10;5.93;;;4.30;;
10711;SDS011;5407;51.234;6.804;2023-07-24T04:23:37;6.40;;;4.38;;
10711;SDS011;5407;51.234;6.804;2023-07-24T04:26:04;6.07;;;4.28;;
10711;SDS011;5407;51.234;6.804;2023-07-24T04:28:31;6.60;;;4.13;;
10711;SDS011;5407;51.234;6.804;2023-07-24T04:30:59;5.68;;;4.20;;
10711;SDS011;5407;51.234;6.804;2023-07-24T04:33:27;13.00;;;5.03;;
10711;SDS011;5407;51.234;6.804;2023-07-24T04:35:56;7.82;;;4.70;;
10711;SDS011;5407;51.234;6.804;2023-07-24T04:38:23;9.73;;;4.63;;
10711;SDS011;5407;51.234;6.804;2023-07-24T04:40:50;9.77;;;4.97;;
10711;SDS011;5407;51.234;6.804;2023-07-24T04:43:17;7.40;;;5.18;;
10711;SDS011;5407;51.234;6.804;2023-07-24T04:45:43;11.10;;;4.70;;
10711;SDS011;5407;51.234;6.804;2023-07-24T04:48:11;11.18;;;5.00;;
10711;SDS011;5407;51.234;6.804;2023-07-24T04:50:38;9.13;;;5.50;;
10711;SDS011;5407;51.234;6.804;2023-07-24T04:53:06;8.50;;;5.07;;
10711;SDS011;5407;51.234;6.804;2023-07-24T04:55:33;10.60;;;5.40;;
10711;SDS011;5407;51.234;6.804;2023-07-24T04:58:00;9.68;;;4.85;;
10711;SDS011;5407;51.234;6.804;2023-07-24T05:00:27;8.35;;;5.28;;
10711;SDS011;5407;51.234;6.804;2023-07-24T05:02:54;7.87;;;4.83;;
10711;SDS011;5407;51.234;6.804;2023-07-24T05:05:20;8.25;;;4.70;;
10711;SDS011;5407;51.234;6.804;2023-07-24T05:07:47;12.10;;;4.72;;
10711;SDS011;5407;51.234;6.804;2023-07-24T05:10:16;7.70;;;4.82;;
10711;SDS011;5407;51.234;6.804;2023-07-24T05:12:43;6.77;;;5.33;;
10711;SDS011;5407;51.234;6.804;2023-07-24T05:15:10;7.72;;;4.68;;
10711;SDS011;5407;51.234;6.804;2023-07-24T05:17:36;9.97;;;5.20;;
10711;SDS011;5407;51.234;6.804;2023-07-24T05:20:04;9.70;;;4.60;;
10711;SDS011;5407;51.234;6.804;2023-07-24T05:22:32;8.73;;;5.25;;
10711;SDS011;5407;51.234;6.804;2023-07-24T05:24:59;12.68;;;5.00;;
10711;SDS011;5407;51.234;6.804;2023-07-24T05:27:27;8.43;;;5.53;;
10711;SDS011;5407;51.234;6.804;2023-07-24T05:29:54;6.60;;;5.20;;
10711;SDS011;5407;51.234;6.804;2023-07-24T05:32:20;8.27;;;5.17;;
10711;SDS011;5407;51.234;6.804;2023-07-24T05:34:47;11.30;;;5.35;;
10711;SDS011;5407;51.234;6.804;2023-07-24T05:37:14;8.83;;;5.33;;
10711;SDS011;5407;51.234;6.804;2023-07-24T05:39:41;9.03;;;5.20;;
10711;SDS011;5407;51.234;6.804;2023-07-24T05:42:08;9.17;;;5.00;;
10711;SDS011;5407;51.234;6.804;2023-07-24T05:44:37;8.65;;;5.50;;
10711;SDS011;5407;51.234;6.804;2023-07-24T05:47:04;9.85;;;5.30;;
10711;SDS011;5407;51.234;6.804;2023-07-24T05:49:31;7.22;;;5.32;;
10711;SDS011;5407;51.234;6.804;2023-07-24T05:51:57;10.43;;;5.25;;
10711;SDS011;5407;51.234;6.804;2023-07-24T05:54:24;8.57;;;5.25;;
10711;SDS011;5407;51.234;6.804;2023-07-24T05:56:51;10.20;;;5.10;;
10711;SDS011;5407;51.234;6.804;2023-07-24T05:59:18;9.13;;;5.40;;
10711;SDS011;5407;51.234;6.804;2023-07-24T06:01:46;9.32;;;5.15;;
10711;SDS011;5407;51.234;6.804;2023-07-24T06:04:13;8.10;;;5.10;;
10711;SDS011;5407;51.234;6.804;2023-07-24T06:06:40;7.32;;;5.30;;
10711;SDS011;5407;51.234;6.804;2023-07-24T06:09:07;9.43;;;4.80;;
10711;SDS011;5407;51.234;6.804;2023-07-24T06:11:34;9.90;;;4.82;;
10711;SDS011;5407;51.234;6.804;2023-07-24T06:14:01;10.23;;;5.27;;
10711;SDS011;5407;51.234;6.804;2023-07-24T06:16:28;8.90;;;4.97;;
10711;SDS011;5407;51.234;6.804;2023-07-24T06:18:56;8.10;;;5.00;;
10711;SDS011;5407;51.234;6.804;2023-07-24T06:21:23;7.68;;;4.85;;
10711;SDS011;5407;51.234;6.804;2023-07-24T06:23:50;8.10;;;4.57;;
10711;SDS011;5407;51.234;6.804;2023-07-24T06:26:17;4.60;;;4.07;;
10711;SDS011;5407;51.234;6.804;2023-07-24T06:28:44;5.47;;;4.53;;
10711;SDS011;5407;51.234;6.804;2023-07-24T06:31:11;7.32;;;4.43;;
10711;SDS011;5407;51.234;6.804;2023-07-24T06:33:37;6.88;;;5.03;;
10711;SDS011;5407;51.234;6.804;2023-07-24T06:36:09;7.57;;;4.22;;
10711;SDS011;5407;51.234;6.804;2023-07-24T06:38:36;6.38;;;4.70;;
10711;SDS011;5407;51.234;6.804;2023-07-24T06:41:03;7.75;;;4.70;;
10711;SDS011;5407;51.234;6.804;2023-07-24T06:43:30;5.40;;;4.00;;
10711;SDS011;5407;51.234;6.804;2023-07-24T06:45:57;5.18;;;4.05;;
10711;SDS011;5407;51.234;6.804;2023-07-24T06:48:24;7.00;;;4.50;;
10711;SDS011;5407;51.234;6.804;2023-07-24T06:50:50;6.95;;;4.35;;
10711;SDS011;5407;51.234;6.804;2023-07-24T06:53:19;5.90;;;4.28;;
10711;SDS011;5407;51.234;6.804;2023-07-24T06:55:45;5.85;;;3.95;;
10711;SDS011;5407;51.234;6.804;2023-07-24T06:58:12;4.97;;;4.43;;
10711;SDS011;5407;51.234;6.804;2023-07-24T07:00:39;6.70;;;4.03;;
10711;SDS011;5407;51.234;6.804;2023-07-24T07:03:06;7.23;;;3.80;;
10711;SDS011;5407;51.234;6.804;2023-07-24T07:05:33;5.07;;;4.00;;
10711;SDS011;5407;51.234;6.804;2023-07-24T07:07:59;6.43;;;3.83;;
10711;SDS011;5407;51.234;6.804;2023-07-24T07:10:28;5.23;;;3.93;;
10711;SDS011;5407;51.234;6.804;2023-07-24T07:12:56;8.43;;;3.75;;
10711;SDS011;5407;51.234;6.804;2023-07-24T07:15:23;4.03;;;3.63;;
10711;SDS011;5407;51.234;6.804;2023-07-24T07:17:50;7.13;;;3.50;;
10711;SDS011;5407;51.234;6.804;2023-07-24T07:20:17;5.63;;;3.72;;
10711;SDS011;5407;51.234;6.804;2023-07-24T07:22:44;5.18;;;3.70;;
10711;SDS011;5407;51.234;6.804;2023-07-24T07:25:11;5.03;;;3.30;;
10711;SDS011;5407;51.234;6.804;2023-07-24T07:27:39;3.63;;;3.33;;
10711;SDS011;5407;51.234;6.804;2023-07-24T07:30:06;5.03;;;3.53;;
10711;SDS011;5407;51.234;6.804;2023-07-24T07:32:34;6.20;;;3.83;;
10711;SDS011;5407;51.234;6.804;2023-07-24T07:35:01;4.05;;;3.45;;
10711;SDS011;5407;51.234;6.804;2023-07-24T07:37:28;5.55;;;3.50;;
10711;SDS011;5407;51.234;6.804;2023-07-24T07:39:55;5.38;;;3.65;;
10711;SDS011;5407;51.234;6.804;2023-07-24T07:42:22;7.60;;;3.75;;
10711;SDS011;5407;51.234;6.804;2023-07-24T07:44:50;3.78;;;3.40;;
10711;SDS011;5407;51.234;6.804;2023-07-24T07:47:17;9.77;;;3.80;;
10711;SDS011;5407;51.234;6.804;2023-07-24T07:49:44;8.13;;;3.42;;
10711;SDS011;5407;51.234;6.804;2023-07-24T07:52:11;5.43;;;3.35;;
10711;SDS011;5407;51.234;6.804;2023-07-24T07:54:39;4.97;;;3.70;;
10711;SDS011;5407;51.234;6.804;2023-07-24T07:57:07;4.63;;;3.40;;
10711;SDS011;5407;51.234;6.804;2023-07-24T07:59:33;6.07;;;3.40;;
10711;SDS011;5407;51.234;6.804;2023-07-24T08:02:02;5.22;;;3.50;;
10711;SDS011;5407;51.234;6.804;2023-07-24T08:04:29;4.18;;;3.15;;
10711;SDS011;5407;51.234;6.804;2023-07-24T08:06:56;4.28;;;3.40;;
10711;SDS011;5407;51.234;6.804;2023-07-24T08:09:23;4.95;;;3.47;;
10711;SDS011;5407;51.234;6.804;2023-07-24T08:11:50;4.03;;;3.10;;
10711;SDS011;5407;51.234;6.804;2023-07-24T08:14:17;5.57;;;3.23;;
10711;SDS011;5407;51.234;6.804;2023-07-24T08:16:44;6.70;;;3.50;;
10711;SDS011;5407;51.234;6.804;2023-07-24T08:19:13;5.90;;;3.10;;
10711;SDS011;5407;51.234;6.804;2023-07-24T08:21:39;4.35;;;3.22;;
10711;SDS011;5407;51.234;6.804;2023-07-24T08:24:06;3.80;;;3.40;;
10711;SDS011;5407;51.234;6.804;2023-07-24T08:26:33;4.78;;;3.22;;
10711;SDS011;5407;51.234;6.804;2023-07-24T08:29:00;4.63;;;3.57;;
10711;SDS011;5407;51.234;6.804;2023-07-24T08:31:28;5.68;;;3.42;;
10711;SDS011;5407;51.234;6.804;2023-07-24T08:33:55;3.30;;;2.70;;
10711;SDS011;5407;51.234;6.804;2023-07-24T08:36:24;3.47;;;3.17;;
10711;SDS011;5407;51.234;6.804;2023-07-24T08:38:50;6.63;;;3.70;;
10711;SDS011;5407;51.234;6.804;2023-07-24T08:41:17;5.90;;;3.25;;
10711;SDS011;5407;51.234;6.804;2023-07-24T08:43:44;5.10;;;3.30;;
10711;SDS011;5407;51.234;6.804;2023-07-24T08:46:11;5.65;;;3.30;;
10711;SDS011;5407;51.234;6.804;2023-07-24T08:48:38;5.20;;;3.17;;
10711;SDS011;5407;51.234;6.804;2023-07-24T08:51:07;3.47;;;2.92;;
10711;SDS011;5407;51.234;6.804;2023-07-24T08:53:36;5.10;;;3.20;;
10711;SDS011;5407;51.234;6.804;2023-07-24T08:56:05;5.72;;;3.40;;
10711;SDS011;5407;51.234;6.804;2023-07-24T08:58:33;8.50;;;3.03;;
10711;SDS011;5407;51.234;6.804;2023-07-24T09:01:01;4.00;;;2.95;;
10711;SDS011;5407;51.234;6.804;2023-07-24T09:03:30;4.10;;;3.00;;
10711;SDS011;5407;51.234;6.804;2023-07-24T09:05:57;3.90;;;3.10;;
10711;SDS011;5407;51.234;6.804;2023-07-24T09:08:29;4.15;;;2.97;;
10711;SDS011;5407;51.234;6.804;2023-07-24T09:10:58;4.93;;;3.28;;
10711;SDS011;5407;51.234;6.804;2023-07-24T09:13:26;6.07;;;3.30;;
10711;SDS011;5407;51.234;6.804;2023-07-24T09:15:53;4.70;;;3.00;;
10711;SDS011;5407;51.234;6.804;2023-07-24T09:18:20;6.57;;;3.35;;
10711;SDS011;5407;51.234;6.804;2023-07-24T09:20:47;6.37;;;3.40;;
10711;SDS011;5407;51.234;6.804;2023-07-24T09:23:15;5.10;;;3.20;;
10711;SDS011;5407;51.234;6.804;2023-07-24T09:25:43;5.05;;;3.15;;
10711;SDS011;5407;51.234;6.804;2023-07-24T09:28:12;7.72;;;3.47;;
10711;SDS011;5407;51.234;6.804;2023-07-24T09:30:39;5.78;;;3.30;;
10711;SDS011;5407;51.234;6.804;2023-07-24T09:33:07;5.35;;;3.38;;
10711;SDS011;5407;51.234;6.804;2023-07-24T09:35:34;3.43;;;3.03;;
10711;SDS011;5407;51.234;6.804;2023-07-24T09:38:01;5.80;;;3.20;;
10711;SDS011;5407;51.234;6.804;2023-07-24T09:40:36;4.82;;;3.28;;
10711;SDS011;5407;51.234;6.804;2023-07-24T09:43:15;4.68;;;3.40;;
10711;SDS011;5407;51.234;6.804;2023-07-24T09:45:46;4.25;;;3.22;;
10711;SDS011;5407;51.234;6.804;2023-07-24T09:48:14;5.25;;;3.20;;
10711;SDS011;5407;51.234;6.804;2023-07-24T09:50:42;4.03;;;3.17;;
10711;SDS011;5407;51.234;6.804;2023-07-24T09:53:15;4.30;;;3.15;;
10711;SDS011;5407;51.234;6.804;2023-07-24T09:55:47;4.80;;;3.58;;
10711;SDS011;5407;51.234;6.804;2023-07-24T09:58:19;3.83;;;3.53;;
10711;SDS011;5407;51.234;6.804;2023-07-24T10:00:48;5.53;;;3.33;;
10711;SDS011;5407;51.234;6.804;2023-07-24T10:03:16;5.13;;;4.30;;
10711;SDS011;5407;51.234;6.804;2023-07-24T10:05:45;3.65;;;3.35;;
10711;SDS011;5407;51.234;6.804;2023-07-24T10:08:14;7.28;;;5.15;;
10711;SDS011;5407;51.234;6.804;2023-07-24T10:10:42;4.05;;;3.50;;
10711;SDS011;5407;51.234;6.804;2023-07-24T10:13:10;6.85;;;3.72;;
10711;SDS011;5407;51.234;6.804;2023-07-24T10:15:42;8.45;;;3.38;;
10711;SDS011;5407;51.234;6.804;2023-07-24T10:18:10;6.60;;;3.65;;
10711;SDS011;5407;51.234;6.804;2023-07-24T10:20:38;3.88;;;3.20;;
10711;SDS011;5407;51.234;6.804;2023-07-24T10:23:07;5.85;;;3.15;;
10711;SDS011;5407;51.234;6.804;2023-07-24T10:25:36;3.47;;;3.05;;
10711;SDS011;5407;51.234;6.804;2023-07-24T10:28:06;4.93;;;3.72;;
10711;SDS011;5407;51.234;6.804;2023-07-24T10:30:36;8.38;;;3.70;;
10711;SDS011;5407;51.234;6.804;2023-07-24T10:33:06;5.85;;;4.05;;
10711;SDS011;5407;51.234;6.804;2023-07-24T10:35:41;7.90;;;3.65;;
10711;SDS011;5407;51.234;6.804;2023-07-24T10:38:09;6.55;;;3.35;;
10711;SDS011;5407;51.234;6.804;2023-07-24T10:40:37;9.48;;;4.35;;
10711;SDS011;5407;51.234;6.804;2023-07-24T10:43:06;6.75;;;3.90;;
10711;SDS011;5407;51.234;6.804;2023-07-24T10:45:40;6.65;;;3.80;;
10711;SDS011;5407;51.234;6.804;2023-07-24T10:48:15;6.85;;;4.60;;
10711;SDS011;5407;51.234;6.804;2023-07-24T10:50:43;5.38;;;4.00;;
10711;SDS011;5407;51.234;6.804;2023-07-24T10:53:12;3.75;;;3.40;;
10711;SDS011;5407;51.234;6.804;2023-07-24T10:55:41;6.90;;;3.67;;
10711;SDS011;5407;51.234;6.804;2023-07-24T10:58:08;4.22;;;3.45;;
10711;SDS011;5407;51.234;6.804;2023-07-24T11:00:36;7.53;;;5.70;;
10711;SDS011;5407;51.234;6.804;2023-07-24T11:03:04;4.90;;;4.40;;
10711;SDS011;5407;51.234;6.804;2023-07-24T11:05:35;5.15;;;3.33;;
10711;SDS011;5407;51.234;6.804;2023-07-24T11:08:08;13.15;;;8.27;;
10711;SDS011;5407;51.234;6.804;2023-07-24T11:10:39;10.82;;;8.07;;
10711;SDS011;5407;51.234;6.804;2023-07-24T11:13:11;4.38;;;3.65;;
10711;SDS011;5407;51.234;6.804;2023-07-24T11:15:38;4.65;;;4.07;;
10711;SDS011;5407;51.234;6.804;2023-07-24T11:18:05;5.60;;;3.83;;
10711;SDS011;5407;51.234;6.804;2023-07-24T11:20:35;5.10;;;3.40;;
10711;SDS011;5407;51.234;6.804;2023-07-24T11:23:04;4.05;;;3.08;;
10711;SDS011;5407;51.234;6.804;2023-07-24T11:25:30;4.55;;;3.38;;
10711;SDS011;5407;51.234;6.804;2023-07-24T11:27:58;4.20;;;3.50;;
10711;SDS011;5407;51.234;6.804;2023-07-24T11:30:25;5.63;;;3.25;;
10711;SDS011;5407;51.234;6.804;2023-07-24T11:32:52;4.80;;;3.22;;
10711;SDS011;5407;51.234;6.804;2023-07-24T11:35:19;4.85;;;2.38;;
10711;SDS011;5407;51.234;6.804;2023-07-24T11:37:49;9.98;;;3.30;;
10711;SDS011;5407;51.234;6.804;2023-07-24T11:40:16;9.50;;;3.37;;
10711;SDS011;5407;51.234;6.804;2023-07-24T11:42:45;6.65;;;3.00;;
10711;SDS011;5407;51.234;6.804;2023-07-24T11:45:13;4.43;;;2.70;;
10711;SDS011;5407;51.234;6.804;2023-07-24T11:47:41;5.43;;;2.63;;
10711;SDS011;5407;51.234;6.804;2023-07-24T11:50:09;6.47;;;2.93;;
10711;SDS011;5407;51.234;6.804;2023-07-24T11:52:40;7.27;;;3.00;;
10711;SDS011;5407;51.234;6.804;2023-07-24T11:55:10;6.27;;;3.30;;
10711;SDS011;5407;51.234;6.804;2023-07-24T11:57:38;5.30;;;2.93;;
10711;SDS011;5407;51.234;6.804;2023-07-24T12:00:06;7.40;;;4.00;;
10711;SDS011;5407;51.234;6.804;2023-07-24T12:02:43;5.93;;;3.43;;
10711;SDS011;5407;51.234;6.804;2023-07-24T12:05:10;6.57;;;3.47;;
10711;SDS011;5407;51.234;6.804;2023-07-24T12:07:37;3.97;;;3.00;;
10711;SDS011;5407;51.234;6.804;2023-07-24T12:10:05;3.60;;;2.60;;
10711;SDS011;5407;51.234;6.804;2023-07-24T12:12:38;5.53;;;2.70;;
10711;SDS011;5407;51.234;6.804;2023-07-24T12:15:06;4.40;;;2.60;;
10711;SDS011;5407;51.234;6.804;2023-07-24T12:17:33;3.87;;;2.47;;
10711;SDS011;5407;51.234;6.804;2023-07-24T12:20:00;4.33;;;2.40;;
10711;SDS011;5407;51.234;6.804;2023-07-24T12:22:29;7.70;;;2.70;;
10711;SDS011;5407;51.234;6.804;2023-07-24T12:24:56;3.03;;;2.57;;
10711;SDS011;5407;51.234;6.804;2023-07-24T12:27:23;3.37;;;2.47;;
10711;SDS011;5407;51.234;6.804;2023-07-24T12:29:52;3.23;;;2.10;;
10711;SDS011;5407;51.234;6.804;2023-07-24T12:32:19;2.83;;;2.20;;
10711;SDS011;5407;51.234;6.804;2023-07-24T12:34:47;3.83;;;2.20;;
10711;SDS011;5407;51.234;6.804;2023-07-24T12:37:15;4.67;;;2.30;;
10711;SDS011;5407;51.234;6.804;2023-07-24T12:39:43;3.58;;;2.20;;
10711;SDS011;5407;51.234;6.804;2023-07-24T12:42:10;4.50;;;2.00;;
10711;SDS011;5407;51.234;6.804;2023-07-24T12:44:37;2.72;;;2.10;;
10711;SDS011;5407;51.234;6.804;2023-07-24T12:47:06;2.78;;;2.33;;
10711;SDS011;5407;51.234;6.804;2023-07-24T12:49:32;2.72;;;2.53;;
10711;SDS011;5407;51.234;6.804;2023-07-24T12:52:00;3.17;;;2.70;;
10711;SDS011;5407;51.234;6.804;2023-07-24T12:54:27;3.40;;;3.10;;
10711;SDS011;5407;51.234;6.804;2023-07-24T12:56:54;4.65;;;2.85;;
10711;SDS011;5407;51.234;6.804;2023-07-24T12:59:21;5.45;;;2.75;;
10711;SDS011;5407;51.234;6.804;2023-07-24T13:01:48;6.53;;;2.80;;
10711;SDS011;5407;51.234;6.804;2023-07-24T13:04:16;2.97;;;2.50;;
10711;SDS011;5407;51.234;6.804;2023-07-24T13:06:43;3.45;;;3.25;;
10711;SDS011;5407;51.234;6.804;2023-07-24T13:09:10;4.60;;;2.67;;
10711;SDS011;5407;51.234;6.804;2023-07-24T13:11:37;3.22;;;2.80;;
10711;SDS011;5407;51.234;6.804;2023-07-24T13:14:04;3.13;;;2.83;;
10711;SDS011;5407;51.234;6.804;2023-07-24T13:16:31;4.50;;;2.60;;
10711;SDS011;5407;51.234;6.804;2023-07-24T13:18:58;3.03;;;2.78;;
10711;SDS011;5407;51.234;6.804;2023-07-24T13:21:26;3.10;;;2.90;;
10711;SDS011;5407;51.234;6.804;2023-07-24T13:23:53;3.13;;;2.80;;
10711;SDS011;5407;51.234;6.804;2023-07-24T13:26:21;3.47;;;2.67;;
10711;SDS011;5407;51.234;6.804;2023-07-24T13:28:48;3.25;;;2.63;;
10711;SDS011;5407;51.234;6.804;2023-07-24T13:31:15;3.60;;;2.88;;
10711;SDS011;5407;51.234;6.804;2023-07-24T13:33:43;3.00;;;2.58;;
10711;SDS011;5407;51.234;6.804;2023-07-24T13:36:10;4.45;;;2.40;;
10711;SDS011;5407;51.234;6.804;2023-07-24T13:38:39;3.22;;;2.67;;
10711;SDS011;5407;51.234;6.804;2023-07-24T13:41:06;4.65;;;2.70;;
10711;SDS011;5407;51.234;6.804;2023-07-24T13:43:34;4.43;;;3.35;;
10711;SDS011;5407;51.234;6.804;2023-07-24T13:46:01;2.88;;;2.58;;
10711;SDS011;5407;51.234;6.804;2023-07-24T13:48:29;5.28;;;3.40;;
10711;SDS011;5407;51.234;6.804;2023-07-24T13:50:56;3.25;;;2.58;;
10711;SDS011;5407;51.234;6.804;2023-07-24T13:53:23;5.28;;;2.88;;
10711;SDS011;5407;51.234;6.804;2023-07-24T13:55:53;2.60;;;2.40;;
10711;SDS011;5407;51.234;6.804;2023-07-24T13:58:20;2.90;;;2.60;;
10711;SDS011;5407;51.234;6.804;2023-07-24T14:00:47;3.85;;;2.33;;
10711;SDS011;5407;51.234;6.804;2023-07-24T14:03:14;3.67;;;2.20;;
10711;SDS011;5407;51.234;6.804;2023-07-24T14:05:41;2.47;;;2.28;;
10711;SDS011;5407;51.234;6.804;2023-07-24T14:08:07;2.60;;;2.38;;
10711;SDS011;5407;51.234;6.804;2023-07-24T14:10:34;2.92;;;2.20;;
10711;SDS011;5407;51.234;6.804;2023-07-24T14:13:03;2.42;;;2.20;;
10711;SDS011;5407;51.234;6.804;2023-07-24T14:15:30;1.85;;;1.75;;
10711;SDS011;5407;51.234;6.804;2023-07-24T14:17:57;1.85;;;1.65;;
10711;SDS011;5407;51.234;6.804;2023-07-24T14:20:24;1.85;;;1.75;;
10711;SDS011;5407;51.234;6.804;2023-07-24T14:22:51;1.73;;;1.63;;
10711;SDS011;5407;51.234;6.804;2023-07-24T14:25:18;2.72;;;2.05;;
10711;SDS011;5407;51.234;6.804;2023-07-24T14:27:45;2.40;;;2.20;;
10711;SDS011;5407;51.234;6.804;2023-07-24T14:30:13;2.08;;;1.88;;
10711;SDS011;5407;51.234;6.804;2023-07-24T14:32:40;3.42;;;1.80;;
10711;SDS011;5407;51.234;6.804;2023-07-24T14:35:07;2.17;;;1.92;;
10711;SDS011;5407;51.234;6.804;2023-07-24T14:37:34;2.70;;;1.90;;
10711;SDS011;5407;51.234;6.804;2023-07-24T14:40:01;2.10;;;1.90;;
10711;SDS011;5407;51.234;6.804;2023-07-24T14:42:28;3.15;;;1.70;;
10711;SDS011;5407;51.234;6.804;2023-07-24T14:44:55;1.83;;;1.60;;
10711;SDS011;5407;51.234;6.804;2023-07-24T14:47:28;1.90;;;1.80;;
10711;SDS011;5407;51.234;6.804;2023-07-24T14:49:56;3.10;;;1.80;;
10711;SDS011;5407;51.234;6.804;2023-07-24T14:52:24;3.70;;;2.17;;
10711;SDS011;5407;51.234;6.804;2023-07-24T14:54:51;2.47;;;2.28;;
10711;SDS011;5407;51.234;6.804;2023-07-24T14:57:17;2.47;;;2.00;;
10711;SDS011;5407;51.234;6.804;2023-07-24T14:59:44;2.30;;;2.10;;
10711;SDS011;5407;51.234;6.804;2023-07-24T15:02:11;2.83;;;1.85;;
10711;SDS011;5407;51.234;6.804;2023-07-24T15:04:39;3.75;;;2.20;;